Terminal Aerodrome Forecast
Issued by NWS

Home | Current Version | Previous Version | Text Only | Print | Product List | Glossary On
Versions: 1 2 3 4 5 6 7 8 9 10 11 12 13 14 15 16 17 18 19 20 21 22 23 24 25 26 27 28
000
FTUS41 KBOX 031730
TAFFMH
TAF
KFMH 031730Z 0318/0418 23005KT P6SM SCT150
     FM032100 19008KT P6SM BKN100
     FM040000 17010KT 1SM -SN OVC050
     FM040300 18013KT 1SM -SNPL OVC010
     FM040500 19015KT 5SM -RA OVC010
     FM041100 24015KT P6SM OVC008
     FM041700 24010KT P6SM OVC070=

USA.gov is the U.S. government's official web portal to all federal, state and local government web resources and services.